ADDS METAR Data INFO
IDs: Format: Raw Decoded Include TAF

Data at: 1246 UTC 19 Oct 2017

KTTF 191233Z AUTO 24009KT 10SM CLR 13/07 A3009 RMK AO2 T01290074
KTTF 191213Z AUTO 25009G14KT 10SM CLR 13/07 A3008 RMK AO2 T01270072
KTTF 191153Z AUTO 23009KT 10SM CLR 13/07 A3007 RMK AO2 T01290071 10148 20128
KTTF 191133Z AUTO 23008KT 10SM CLR 13/07 A3007 RMK AO2 T01300070
KTTF 191113Z AUTO 24010KT 10SM CLR 13/07 A3007 RMK AO2 T01340068
KTTF 191053Z AUTO 23010KT 10SM CLR 14/07 A3007 RMK AO2 T01350068
KTTF 191033Z AUTO 23008G14KT 10SM CLR 13/07 A3007 RMK AO2 T01330066
KTTF 191013Z AUTO 22008G17KT 10SM CLR 14/07 A3007 RMK AO2 T01360065
KTTF 190953Z AUTO 22010G14KT 10SM CLR 14/07 A3007 RMK AO2 T01380065
KTTF 190933Z AUTO 22010G16KT 10SM CLR 14/06 A3007 RMK AO2 T01400063
KTTF 190913Z AUTO 22011G17KT 10SM CLR 14/06 A3007 RMK AO2 T01440062
KTTF 190853Z AUTO 23011KT 10SM CLR 14/06 A3007 RMK AO2 T01440061
KTTF 190833Z AUTO 23014G19KT 10SM CLR 15/06 A3007 RMK AO2 T01450060
KTTF 190812Z AUTO 23012G16KT 10SM CLR 15/06 A3008 RMK AO2 T01450060
KTTF 190752Z AUTO 23011KT 10SM CLR 15/06 A3008 RMK AO2 T01460060
KTTF 190732Z AUTO 23011G17KT 10SM CLR 15/06 A3009 RMK AO2 T01450059
KTTF 190712Z AUTO 24011G18KT 10SM CLR 15/06 A3009 RMK AO2 T01460057
KTTF 190652Z AUTO 23007KT 10SM CLR 14/06 A3009 RMK AO2 T01360056
KTTF 190632Z AUTO 21006KT 10SM CLR 13/06 A3009 RMK AO2 T01320055
KTTF 190612Z AUTO 21006KT 10SM CLR 14/05 A3009 RMK AO2 T01360052
KTTF 190552Z AUTO 22005KT 10SM CLR 14/05 A3010 RMK AO2 T01360050 10152 20135
KTTF 190532Z AUTO 22006KT 10SM CLR 14/05 A3010 RMK AO2 T01380050
KTTF 190512Z AUTO 22006KT 10SM CLR 14/05 A3010 RMK AO2 T01390047
KTTF 190452Z AUTO 21006KT 10SM CLR 14/05 A3011 RMK AO2 T01390046
KTTF 190432Z AUTO 21006KT 10SM 14/04 A3011 RMK AO2 T01420043
KTTF 190414Z AUTO 21005KT 10SM CLR 14/04 A3011 RMK AO2 T01420044
KTTF 190354Z AUTO 21006KT 10SM CLR 15/04 A3012 RMK AO2 T01450042 402180056
KTTF 190334Z AUTO 21006KT 10SM CLR 15/04 A3012 RMK AO2 T01480041
KTTF 190314Z AUTO 22006KT 10SM CLR 15/04 A3012 RMK AO2 T01520041
KTTF 190254Z AUTO 20007KT 10SM CLR 15/04 A3011 RMK AO2 T01450041
KTTF 190234Z AUTO 20007KT 10SM CLR 14/04 A3011 RMK AO2 T01430042
KTTF 190213Z AUTO 19005KT 10SM CLR 14/04 A3011 RMK AO2 T01370041
KTTF 190153Z AUTO 19004KT 10SM CLR 14/04 A3011 RMK AO2 T01400042
KTTF 190133Z AUTO 19004KT 10SM CLR 14/04 A3011 RMK AO2 T01420042
KTTF 190113Z AUTO 19004KT 10SM CLR 14/04 A3011 RMK AO2 T01420040
KTTF 190053Z AUTO 18006KT 10SM CLR 14/04 A3011 RMK AO2 T01420040
KTTF 190033Z AUTO 18004KT 10SM CLR 14/04 A3011 RMK AO2 T01430040
KTTF 190013Z AUTO 18005KT 10SM CLR 15/04 A3012 RMK AO2 T01480040
KTTF 182353Z AUTO 17004KT 10SM CLR 15/04 A3012 RMK AO2 T01530037 10218 20150
KTTF 182333Z AUTO 19004KT 10SM CLR 15/04 A3012 RMK AO2 T01510037
KTTF 182313Z AUTO 20003KT 10SM CLR 16/04 A3012 RMK AO2 T01600038
KTTF 182253Z AUTO 19004KT 10SM CLR 18/03 A3012 RMK AO2 T01750032
KTTF 182233Z AUTO 20005KT 10SM CLR 19/03 A3012 RMK AO2 T01880028
KTTF 182212Z AUTO 21007KT 10SM CLR 20/02 A3013 RMK AO2 T01970023
KTTF 182152Z AUTO 21007KT 10SM CLR 21/02 A3013 RMK AO2 T02050022
KTTF 182132Z AUTO 22011G14KT 10SM CLR 21/02 A3013 RMK AO2 T02080021
KTTF 182112Z AUTO 22010G18KT 10SM CLR 21/02 A3013 RMK AO2 T02120016
KTTF 182052Z AUTO 20010G19KT 10SM CLR 21/02 A3014 RMK AO2 T02140015
KTTF 182032Z AUTO 22011G17KT 10SM CLR 22/02 A3014 RMK AO2 T02150021
KTTF 182012Z AUTO 21010G17KT 10SM CLR 22/02 A3014 RMK AO2 T02160023
KTTF 181952Z AUTO 22010G18KT 180V250 10SM CLR 22/02 A3014 RMK AO2 T02160022
KTTF 181932Z AUTO 22011G17KT 10SM CLR 22/03 A3015 RMK AO2 T02150033
KTTF 181912Z AUTO 20009G18KT 10SM CLR 21/03 A3016 RMK AO2 T02120032
KTTF 181852Z AUTO 20008G11KT 170V240 10SM CLR 21/04 A3017 RMK AO2 T02100040
KTTF 181832Z AUTO 21010G16KT 10SM CLR 21/05 A3018 RMK AO2 T02080045
KTTF 181811Z AUTO 20006G19KT 10SM CLR 20/06 A3018 RMK AO2 T02020056
KTTF 181751Z AUTO 23009G20KT 10SM CLR 20/05 A3019 RMK AO2 T01980051
KTTF 181731Z AUTO 23010G18KT 10SM CLR 20/05 A3020 RMK AO2 T01950049
KTTF 181711Z AUTO 19011G15KT 10SM CLR 19/06 A3022 RMK AO2 T01910055
KTTF 181651Z AUTO 21010G15KT 10SM CLR 19/05 A3024 RMK AO2 T01880051
KTTF 181631Z AUTO 19011KT 10SM CLR 19/05 A3025 RMK AO2 T01880053
KTTF 181611Z AUTO 20011KT 10SM CLR 18/05 A3025 RMK AO2 T01810050
KTTF 181551Z AUTO 24010KT 10SM CLR 18/05 A3026 RMK AO2 T01770048
KTTF 181531Z AUTO 21009KT 10SM CLR 17/05 A3026 RMK AO2 T01740050
KTTF 181511Z AUTO 22009KT 10SM CLR 17/05 A3026 RMK AO2 T01650050
KTTF 181451Z AUTO 22006KT 10SM CLR 16/05 A3026 RMK AO2 T01560053
KTTF 181435Z AUTO 21006KT 10SM CLR 15/05 A3026 RMK AO2 T01470054
KTTF 181415Z AUTO 21006KT 10SM CLR 14/06 A3026 RMK AO2 T01370055
KTTF 181355Z AUTO 21004KT 10SM CLR 13/05 A3026 RMK AO2 T01260051
KTTF 181335Z AUTO 21004KT 10SM CLR 12/05 A3026 RMK AO2 T01160049
KTTF 181315Z AUTO 21005KT 10SM CLR 10/05 A3026 RMK AO2 T01030048
KTTF 181255Z AUTO 20004KT 10SM CLR 09/05 A3026 RMK AO2 T00930047
KTTF 181235Z AUTO 20003KT 10SM CLR 08/04 A3026 RMK AO2 T00790042
KTTF 181215Z AUTO 00000KT 10SM CLR 07/03 A3025 RMK AO2 T00660033
KTTF 181155Z AUTO 21004KT 10SM CLR 06/03 A3026 RMK AO2 T00630034 10110 20056
KTTF 181135Z AUTO 21003KT 10SM CLR 07/04 A3026 RMK AO2 T00650040
KTTF 181115Z AUTO 19003KT 10SM CLR 06/03 A3026 RMK AO2 T00590033
KTTF 181055Z AUTO 19003KT 10SM CLR 06/04 A3026 RMK AO2 T00620039
KTTF 181035Z AUTO 21003KT 10SM CLR 06/03 A3025 RMK AO2 T00600034
KTTF 181014Z AUTO 21003KT 10SM CLR 08/04 A3025 RMK AO2 T00790036
KTTF 180954Z AUTO 21003KT 10SM CLR 08/04 A3024 RMK AO2 T00800037
KTTF 180934Z AUTO 22004KT 10SM CLR 09/04 A3023 RMK AO2 T00880040
KTTF 180914Z AUTO 21004KT 10SM CLR 09/04 A3023 RMK AO2 T00910041
KTTF 180854Z AUTO 21005KT 10SM CLR 09/04 A3022 RMK AO2 T00910039
KTTF 180834Z AUTO 22005KT 10SM CLR 10/04 A3022 RMK AO2 T00960041
KTTF 180814Z AUTO 23006KT 10SM CLR 10/05 A3021 RMK AO2 T00980045
KTTF 180754Z AUTO 24005KT 10SM CLR 09/04 A3021 RMK AO2 T00870038
KTTF 180734Z AUTO 25004KT 10SM CLR 09/04 A3021 RMK AO2 T00930036
KTTF 180714Z AUTO 00000KT 10SM CLR 10/04 A3022 RMK AO2 T00960038
KTTF 180654Z AUTO 25003KT 10SM CLR 10/04 A3022 RMK AO2 T01000037
KTTF 180634Z AUTO 00000KT 10SM CLR 10/04 A3021 RMK AO2 T00980037
KTTF 180614Z AUTO 23003KT 10SM CLR 10/04 A3021 RMK AO2 T01010037
KTTF 180553Z AUTO 23003KT 10SM CLR 11/04 A3021 RMK AO2 T01090040 10150 20109
KTTF 180533Z AUTO 22005KT 10SM CLR 12/04 A3021 RMK AO2 T01210041
KTTF 180513Z AUTO 22005KT 10SM CLR 11/04 A3021 RMK AO2 T01130041
KTTF 180453Z AUTO 24004KT 10SM CLR 12/04 A3020 RMK AO2 T01200040
KTTF 180433Z AUTO 24005KT 10SM CLR 12/04 A3020 RMK AO2 T01220042
KTTF 180413Z AUTO 22005KT 10SM 13/04 A3020 RMK AO2 T01310041
KTTF 180353Z AUTO 22006KT 10SM CLR 12/05 A3020 RMK AO2 T01210045 402090050
KTTF 180333Z AUTO 23005KT 10SM CLR 13/05 A3020 RMK AO2 T01250045
KTTF 180313Z AUTO 22005KT 10SM CLR 13/04 A3020 RMK AO2 T01340044
KTTF 180253Z AUTO 22005KT 10SM CLR 13/05 A3020 RMK AO2 T01310046
KTTF 180233Z AUTO 22005KT 10SM CLR 13/05 A3020 RMK AO2 T01320046
KTTF 180213Z AUTO 22005KT 10SM CLR 13/05 A3020 RMK AO2 T01320045
KTTF 180152Z AUTO 22005KT 10SM CLR 14/04 A3019 RMK AO2 T01360043
KTTF 180132Z AUTO 21005KT 10SM CLR 14/04 A3019 RMK AO2 T01360042
KTTF 180112Z AUTO 21005KT 10SM CLR 13/04 A3018 RMK AO2 T01290043
KTTF 180052Z AUTO 21004KT 10SM CLR 14/04 A3018 RMK AO2 T01410040